createdAt,value
2023-06-07T00:03:49.741Z,62.49
2023-06-07T00:08:57.629Z,63.15
2023-06-07T00:14:05.551Z,62.38
2023-06-07T00:19:14.310Z,62.34
2023-06-07T00:24:22.519Z,63.45
2023-06-07T00:29:30.194Z,63.49
2023-06-07T00:34:37.779Z,63.52
2023-06-07T00:39:45.444Z,64.67
2023-06-07T00:44:53.097Z,63.93
2023-06-07T00:50:01.467Z,63.94
2023-06-07T00:55:11.165Z,63.92
2023-06-07T01:00:19.435Z,63.61
2023-06-07T01:05:27.197Z,63.22
2023-06-07T01:10:34.918Z,62.94
2023-06-07T01:15:43.309Z,63.58
2023-06-07T01:20:56.377Z,63.88
2023-06-07T01:26:05.478Z,63.96
2023-06-07T01:31:14.404Z,64.63
2023-06-07T01:36:22.743Z,64.43
2023-06-07T01:41:31.035Z,64.38
2023-06-07T01:46:40.050Z,65.47
2023-06-07T01:51:48.042Z,65.68
2023-06-07T01:57:09.361Z,65.13
2023-06-07T02:02:25.996Z,64.80
2023-06-07T02:07:42.165Z,65.15
2023-06-07T02:12:51.914Z,64.78
2023-06-07T02:18:02.664Z,64.69
2023-06-07T02:23:10.907Z,65.47
2023-06-07T02:28:19.028Z,65.09
2023-06-07T02:33:26.835Z,64.96
2023-06-07T02:38:34.450Z,64.57
2023-06-07T02:43:42.079Z,65.10
2023-06-07T02:48:49.969Z,64.37
2023-06-07T02:53:57.554Z,64.01
2023-06-07T02:59:05.162Z,64.65
2023-06-07T03:04:12.832Z,64.23
2023-06-07T03:09:21.128Z,64.87
2023-06-07T03:14:28.842Z,65.18
2023-06-07T03:19:36.450Z,65.10
2023-06-07T03:24:44.842Z,64.58
2023-06-07T03:29:52.570Z,64.40
2023-06-07T03:35:00.268Z,62.41
2023-06-07T03:40:10.558Z,61.72
2023-06-07T03:45:18.260Z,60.97
2023-06-07T03:50:26.020Z,60.09
2023-06-07T03:55:34.607Z,59.25
2023-06-07T04:00:42.680Z,57.05
2023-06-07T04:05:51.023Z,55.69
2023-06-07T04:10:58.640Z,54.74
2023-06-07T04:16:07.062Z,53.32
2023-06-07T04:21:15.731Z,52.83
2023-06-07T04:26:25.105Z,51.93
2023-06-07T04:31:35.605Z,50.85
2023-06-07T04:36:43.481Z,50.82
2023-06-07T04:41:54.425Z,49.44
2023-06-07T04:47:08.103Z,48.27
2023-06-07T04:52:21.000Z,48.01
2023-06-07T04:57:28.786Z,48.04
2023-06-07T05:02:42.655Z,48.35
2023-06-07T05:07:51.014Z,48.56
2023-06-07T05:12:58.844Z,48.68
2023-06-07T05:18:08.649Z,48.31
2023-06-07T05:23:18.184Z,47.47
2023-06-07T05:28:26.044Z,46.64
2023-06-07T05:33:34.079Z,45.47
2023-06-07T05:38:42.044Z,45.18
2023-06-07T05:43:49.645Z,45.00
2023-06-07T05:48:57.253Z,44.54
2023-06-07T05:54:06.864Z,44.49
2023-06-07T05:59:14.495Z,44.26
2023-06-07T06:04:22.095Z,44.11
2023-06-07T06:09:29.880Z,43.98
2023-06-07T06:14:37.498Z,43.77
2023-06-07T06:19:45.146Z,43.66
2023-06-07T06:24:52.852Z,42.78
2023-06-07T06:30:00.827Z,42.88
2023-06-07T06:35:10.046Z,42.57
2023-06-07T06:40:19.844Z,43.23
2023-06-07T06:45:27.549Z,43.78
2023-06-07T06:50:35.793Z,41.12
2023-06-07T06:55:43.639Z,40.83
2023-06-07T07:00:51.436Z,40.20
2023-06-07T07:05:59.248Z,39.66
2023-06-07T07:11:07.033Z,38.57
2023-06-07T07:16:14.728Z,37.92
2023-06-07T07:21:22.601Z,37.80
2023-06-07T07:26:30.215Z,36.87
2023-06-07T07:31:38.309Z,36.19
2023-06-07T07:36:46.153Z,35.62
2023-06-07T07:41:53.772Z,35.00
2023-06-07T07:47:01.412Z,34.85
2023-06-07T07:52:09.878Z,33.88
2023-06-07T07:57:17.524Z,33.89
2023-06-07T08:02:25.259Z,33.70
2023-06-07T08:07:33.494Z,32.19
2023-06-07T08:12:41.186Z,31.16
2023-06-07T08:17:51.357Z,30.65
2023-06-07T08:22:59.318Z,31.54
2023-06-07T08:28:07.419Z,30.56
2023-06-07T08:33:15.698Z,28.95
2023-06-07T08:38:23.319Z,28.40
2023-06-07T08:43:31.035Z,29.72
2023-06-07T08:48:40.789Z,29.62
2023-06-07T08:53:56.628Z,27.92
2023-06-07T08:59:06.083Z,27.80
2023-06-07T09:04:14.440Z,27.02
2023-06-07T09:09:22.304Z,27.68
2023-06-07T09:14:31.464Z,26.30
2023-06-07T09:19:40.736Z,25.73
2023-06-07T09:24:48.537Z,25.61
2023-06-07T09:30:07.137Z,25.94
2023-06-07T09:35:17.255Z,24.39
2023-06-07T09:40:25.609Z,22.87
2023-06-07T09:45:33.829Z,22.50
2023-06-07T09:50:56.156Z,22.59
2023-06-07T09:56:19.809Z,21.83
2023-06-07T10:01:39.194Z,21.14
2023-06-07T10:06:50.901Z,20.92
2023-06-07T10:11:59.742Z,21.45
2023-06-07T10:17:11.687Z,21.81
2023-06-07T10:22:23.646Z,21.54
2023-06-07T10:27:36.498Z,21.33
2023-06-07T10:32:45.510Z,21.21
2023-06-07T10:37:55.052Z,20.60
2023-06-07T10:43:03.989Z,20.78
2023-06-07T10:48:36.111Z,21.45
2023-06-07T10:53:55.604Z,21.73
2023-06-07T10:59:23.485Z,20.79
2023-06-07T11:04:58.352Z,20.96
2023-06-07T11:10:36.497Z,21.40
2023-06-07T11:15:44.328Z,21.68
2023-06-07T11:20:53.655Z,20.05
2023-06-07T11:26:09.639Z,19.44
2023-06-07T11:31:17.952Z,18.64
2023-06-07T11:36:25.732Z,18.51
2023-06-07T11:41:33.607Z,18.43
2023-06-07T11:46:41.390Z,18.32
2023-06-07T11:51:52.245Z,18.28
2023-06-07T11:57:00.180Z,18.77
2023-06-07T12:02:10.100Z,18.46
2023-06-07T12:07:32.998Z,18.02
2023-06-07T12:12:41.668Z,17.49
2023-06-07T12:17:49.326Z,17.44
2023-06-07T12:23:05.736Z,17.51
2023-06-07T12:28:14.102Z,18.84
2023-06-07T12:33:23.429Z,18.38
2023-06-07T12:38:33.235Z,17.75
2023-06-07T12:43:46.730Z,16.98
2023-06-07T12:48:54.826Z,17.45
2023-06-07T12:54:02.520Z,17.21
2023-06-07T12:59:10.213Z,17.65
2023-06-07T13:04:18.083Z,17.52
2023-06-07T13:09:25.805Z,17.80
2023-06-07T13:14:33.548Z,17.89
2023-06-07T13:19:41.801Z,17.88
2023-06-07T13:24:49.495Z,18.36
2023-06-07T13:29:57.875Z,17.87
2023-06-07T13:35:05.866Z,17.85
2023-06-07T13:40:14.524Z,18.86
2023-06-07T13:45:22.741Z,19.06
2023-06-07T13:50:31.854Z,19.45
2023-06-07T13:55:39.495Z,19.97
2023-06-07T14:00:47.113Z,20.09
2023-06-07T14:05:54.821Z,19.43
2023-06-07T14:11:04.052Z,19.02
2023-06-07T14:16:13.271Z,19.01
2023-06-07T14:21:21.220Z,19.59
2023-06-07T14:26:28.915Z,20.01
2023-06-07T14:31:36.615Z,20.09
2023-06-07T14:36:45.559Z,20.59
2023-06-07T14:41:53.257Z,20.24
2023-06-07T14:47:01.537Z,19.90
2023-06-07T14:52:09.793Z,19.46
2023-06-07T14:57:17.861Z,18.78
2023-06-07T15:02:25.627Z,19.05
2023-06-07T15:07:33.311Z,18.52
2023-06-07T15:12:41.300Z,19.00
2023-06-07T15:17:51.745Z,18.66
2023-06-07T15:23:00.207Z,18.51
2023-06-07T15:28:08.875Z,18.72
2023-06-07T15:33:16.573Z,18.97
2023-06-07T15:38:24.390Z,19.04
2023-06-07T15:43:32.070Z,19.22
2023-06-07T15:48:39.836Z,19.36
2023-06-07T15:53:47.884Z,19.77
2023-06-07T15:58:55.523Z,19.80
2023-06-07T16:04:04.736Z,20.34
2023-06-07T16:09:12.551Z,20.54
2023-06-07T16:14:20.602Z,20.49
2023-06-07T16:19:28.255Z,21.22
2023-06-07T16:24:36.169Z,21.42
2023-06-07T16:29:43.813Z,21.42
2023-06-07T16:34:51.513Z,21.48
2023-06-07T16:39:59.222Z,21.89
2023-06-07T16:45:09.684Z,22.36
2023-06-07T16:50:17.690Z,22.45
2023-06-07T16:55:25.544Z,22.66
2023-06-07T17:00:33.231Z,22.76
2023-06-07T17:05:40.990Z,22.38
2023-06-07T17:10:49.409Z,23.01
2023-06-07T17:15:58.108Z,23.62
2023-06-07T17:21:06.692Z,25.16
2023-06-07T17:26:14.967Z,25.42
2023-06-07T17:31:22.664Z,25.27
2023-06-07T17:36:30.310Z,25.64
2023-06-07T17:41:38.015Z,26.93
2023-06-07T17:46:47.060Z,28.97
2023-06-07T17:51:58.397Z,30.17
2023-06-07T17:57:09.326Z,30.31
2023-06-07T18:02:17.105Z,29.97
2023-06-07T18:07:24.861Z,31.73
2023-06-07T18:12:32.512Z,33.16
2023-06-07T18:17:40.200Z,35.67
2023-06-07T18:22:48.023Z,37.12
2023-06-07T18:27:55.626Z,37.14
2023-06-07T18:33:03.765Z,39.01
2023-06-07T18:38:11.553Z,40.08
2023-06-07T18:43:19.291Z,40.31
2023-06-07T18:48:28.084Z,41.41
2023-06-07T18:53:36.532Z,42.20
2023-06-07T18:58:46.568Z,42.76
2023-06-07T19:03:54.605Z,43.05
2023-06-07T19:09:02.493Z,44.00
2023-06-07T19:14:10.897Z,44.38
2023-06-07T19:19:18.603Z,44.85
2023-06-07T19:24:26.356Z,45.85
2023-06-07T19:29:34.147Z,46.58
2023-06-07T19:34:42.583Z,47.50
2023-06-07T19:39:50.621Z,48.45
2023-06-07T19:44:58.329Z,48.99
2023-06-07T19:50:07.836Z,49.56
2023-06-07T19:55:16.542Z,50.28
2023-06-07T20:00:24.362Z,51.20
2023-06-07T20:05:32.069Z,51.71
2023-06-07T20:10:39.717Z,52.01
2023-06-07T20:15:47.461Z,53.03
2023-06-07T20:20:55.135Z,53.66
2023-06-07T20:26:02.765Z,53.69
2023-06-07T20:31:10.455Z,54.25
2023-06-07T20:36:18.125Z,54.23
2023-06-07T20:41:26.846Z,54.64
2023-06-07T20:46:34.931Z,54.99
2023-06-07T20:51:42.813Z,55.52
2023-06-07T20:56:51.097Z,55.76
2023-06-07T21:01:58.867Z,56.04
2023-06-07T21:07:07.219Z,56.00
2023-06-07T21:12:14.936Z,56.78
2023-06-07T21:17:22.810Z,57.13
2023-06-07T21:22:30.579Z,57.16
2023-06-07T21:27:38.350Z,57.51
2023-06-07T21:32:46.058Z,58.01
2023-06-07T21:37:53.771Z,58.53
2023-06-07T21:43:01.440Z,59.08
2023-06-07T21:48:09.264Z,59.08
2023-06-07T21:53:16.933Z,59.16
2023-06-07T21:58:24.962Z,59.88
2023-06-07T22:03:33.622Z,60.45
2023-06-07T22:08:41.272Z,61.16
2023-06-07T22:13:48.914Z,61.72
2023-06-07T22:18:56.561Z,62.32
2023-06-07T22:24:04.874Z,62.44
2023-06-07T22:29:14.017Z,62.92
2023-06-07T22:34:22.576Z,63.25
2023-06-07T22:39:30.188Z,64.04
2023-06-07T22:44:39.224Z,65.30
2023-06-07T22:49:46.833Z,65.01
2023-06-07T22:54:54.458Z,65.09
2023-06-07T23:00:04.147Z,64.83
2023-06-07T23:05:19.133Z,64.77
2023-06-07T23:10:35.612Z,64.58
2023-06-07T23:15:46.384Z,64.71
2023-06-07T23:20:54.440Z,65.26
2023-06-07T23:26:02.144Z,65.83
2023-06-07T23:31:09.773Z,65.77
2023-06-07T23:36:17.710Z,66.09
2023-06-07T23:41:25.384Z,66.02
2023-06-07T23:46:33.082Z,65.82
2023-06-07T23:51:40.752Z,66.24
2023-06-07T23:56:48.639Z,66.20
